sensor_id;sensor_type;location;lat;lon;timestamp;pressure;altitude;pressure_sealevel;temperature;humidity
34586;BME280;20816;50.950;11.108;2023-03-14T00:00:57;96218.72;;;10.47;100.00
34586;BME280;20816;50.950;11.108;2023-03-14T00:03:24;96220.91;;;10.54;100.00
34586;BME280;20816;50.950;11.108;2023-03-14T00:05:50;96226.44;;;10.64;100.00
34586;BME280;20816;50.950;11.108;2023-03-14T00:08:17;96232.06;;;10.58;100.00
34586;BME280;20816;50.950;11.108;2023-03-14T00:10:44;96243.69;;;10.54;100.00
34586;BME280;20816;50.950;11.108;2023-03-14T00:13:10;96241.81;;;10.56;100.00
34586;BME280;20816;50.950;11.108;2023-03-14T00:15:37;96232.81;;;10.60;100.00
34586;BME280;20816;50.950;11.108;2023-03-14T00:18:04;96248.78;;;10.71;100.00
34586;BME280;20816;50.950;11.108;2023-03-14T00:20:30;96230.66;;;10.66;100.00
34586;BME280;20816;50.950;11.108;2023-03-14T00:22:57;96245.22;;;10.72;100.00
34586;BME280;20816;50.950;11.108;2023-03-14T00:25:24;96232.75;;;10.76;100.00
34586;BME280;20816;50.950;11.108;2023-03-14T00:27:51;96228.97;;;10.80;100.00
34586;BME280;20816;50.950;11.108;2023-03-14T00:30:18;96238.28;;;10.71;100.00
34586;BME280;20816;50.950;11.108;2023-03-14T00:32:45;96245.59;;;10.80;100.00
34586;BME280;20816;50.950;11.108;2023-03-14T00:35:12;96275.06;;;10.85;100.00
34586;BME280;20816;50.950;11.108;2023-03-14T00:37:39;96288.31;;;10.84;100.00
34586;BME280;20816;50.950;11.108;2023-03-14T00:40:06;96318.78;;;10.72;100.00
34586;BME280;20816;50.950;11.108;2023-03-14T00:42:34;96318.03;;;10.70;100.00
34586;BME280;20816;50.950;11.108;2023-03-14T00:45:01;96318.22;;;10.81;100.00
34586;BME280;20816;50.950;11.108;2023-03-14T00:47:28;96318.59;;;10.89;100.00
34586;BME280;20816;50.950;11.108;2023-03-14T00:49:54;96313.34;;;10.89;100.00
34586;BME280;20816;50.950;11.108;2023-03-14T00:52:21;96323.03;;;10.89;99.80
34586;BME280;20816;50.950;11.108;2023-03-14T00:54:47;96324.06;;;10.86;99.61
34586;BME280;20816;50.950;11.108;2023-03-14T00:57:14;96337.19;;;10.86;99.86
34586;BME280;20816;50.950;11.108;2023-03-14T00:59:41;96345.06;;;10.86;99.18
34586;BME280;20816;50.950;11.108;2023-03-14T01:02:07;96334.22;;;10.92;98.37
34586;BME280;20816;50.950;11.108;2023-03-14T01:04:34;96341.50;;;10.87;99.40
34586;BME280;20816;50.950;11.108;2023-03-14T01:07:01;96348.56;;;10.87;99.28
34586;BME280;20816;50.950;11.108;2023-03-14T01:09:27;96342.44;;;10.86;99.23
34586;BME280;20816;50.950;11.108;2023-03-14T01:11:54;96333.97;;;10.81;99.62
34586;BME280;20816;50.950;11.108;2023-03-14T01:14:21;96338.00;;;10.73;100.00
34586;BME280;20816;50.950;11.108;2023-03-14T01:16:48;96337.66;;;10.79;100.00
34586;BME280;20816;50.950;11.108;2023-03-14T01:19:14;96339.97;;;10.69;100.00
34586;BME280;20816;50.950;11.108;2023-03-14T01:21:41;96321.28;;;10.59;100.00
34586;BME280;20816;50.950;11.108;2023-03-14T01:24:10;96328.88;;;10.64;100.00
34586;BME280;20816;50.950;11.108;2023-03-14T01:26:37;96330.41;;;10.68;99.83
34586;BME280;20816;50.950;11.108;2023-03-14T01:29:04;96332.44;;;10.63;99.98
34586;BME280;20816;50.950;11.108;2023-03-14T01:31:31;96321.19;;;10.61;99.92
34586;BME280;20816;50.950;11.108;2023-03-14T01:33:58;96316.13;;;10.72;98.40
34586;BME280;20816;50.950;11.108;2023-03-14T01:36:24;96311.81;;;10.71;98.50
34586;BME280;20816;50.950;11.108;2023-03-14T01:38:51;96311.44;;;10.63;99.26
34586;BME280;20816;50.950;11.108;2023-03-14T01:41:22;96294.97;;;10.75;97.71
34586;BME280;20816;50.950;11.108;2023-03-14T01:43:49;96294.56;;;10.67;98.17
34586;BME280;20816;50.950;11.108;2023-03-14T01:46:21;96296.81;;;10.73;97.60
34586;BME280;20816;50.950;11.108;2023-03-14T01:49:09;96296.06;;;10.71;97.39
34586;BME280;20816;50.950;11.108;2023-03-14T01:51:59;96295.72;;;10.77;97.07
34586;BME280;20816;50.950;11.108;2023-03-14T01:54:39;96294.03;;;10.76;96.27
34586;BME280;20816;50.950;11.108;2023-03-14T01:57:24;96285.38;;;10.74;96.73
34586;BME280;20816;50.950;11.108;2023-03-14T02:00:18;96277.88;;;10.68;96.76
34586;BME280;20816;50.950;11.108;2023-03-14T02:02:48;96276.19;;;10.67;95.77
34586;BME280;20816;50.950;11.108;2023-03-14T02:05:23;96264.34;;;10.60;96.66
34586;BME280;20816;50.950;11.108;2023-03-14T02:07:55;96263.78;;;10.69;95.63
34586;BME280;20816;50.950;11.108;2023-03-14T02:10:25;96257.84;;;10.65;96.39
34586;BME280;20816;50.950;11.108;2023-03-14T02:12:55;96249.34;;;10.76;94.57
34586;BME280;20816;50.950;11.108;2023-03-14T02:15:23;96251.41;;;10.71;94.27
34586;BME280;20816;50.950;11.108;2023-03-14T02:17:50;96252.16;;;10.73;94.90
34586;BME280;20816;50.950;11.108;2023-03-14T02:23:04;96253.84;;;10.60;96.02
34586;BME280;20816;50.950;11.108;2023-03-14T02:25:45;96253.94;;;10.73;95.48
34586;BME280;20816;50.950;11.108;2023-03-14T02:28:14;96254.28;;;10.66;95.98
34586;BME280;20816;50.950;11.108;2023-03-14T02:30:41;96239.84;;;10.74;95.15
34586;BME280;20816;50.950;11.108;2023-03-14T02:33:10;96246.72;;;10.62;96.54
34586;BME280;20816;50.950;11.108;2023-03-14T02:35:51;96238.44;;;10.54;97.33
34586;BME280;20816;50.950;11.108;2023-03-14T02:38:24;96233.56;;;10.62;96.75
34586;BME280;20816;50.950;11.108;2023-03-14T02:40:52;96235.16;;;10.64;96.99
34586;BME280;20816;50.950;11.108;2023-03-14T02:43:19;96237.69;;;10.66;97.02
34586;BME280;20816;50.950;11.108;2023-03-14T02:45:47;96223.66;;;10.67;96.63
34586;BME280;20816;50.950;11.108;2023-03-14T02:48:24;96227.19;;;10.66;97.01
34586;BME280;20816;50.950;11.108;2023-03-14T02:50:54;96219.59;;;10.61;97.86
34586;BME280;20816;50.950;11.108;2023-03-14T02:53:26;96207.56;;;10.57;97.27
34586;BME280;20816;50.950;11.108;2023-03-14T02:55:53;96201.31;;;10.60;97.68
34586;BME280;20816;50.950;11.108;2023-03-14T02:58:19;96198.31;;;10.52;97.84
34586;BME280;20816;50.950;11.108;2023-03-14T03:00:46;96196.63;;;10.51;97.52
34586;BME280;20816;50.950;11.108;2023-03-14T03:03:13;96191.16;;;10.39;98.81
34586;BME280;20816;50.950;11.108;2023-03-14T03:05:40;96191.72;;;10.45;97.94
34586;BME280;20816;50.950;11.108;2023-03-14T03:08:09;96178.97;;;10.53;97.08
34586;BME280;20816;50.950;11.108;2023-03-14T03:10:36;96157.97;;;10.53;97.29
34586;BME280;20816;50.950;11.108;2023-03-14T03:13:03;96148.03;;;10.44;97.90
34586;BME280;20816;50.950;11.108;2023-03-14T03:15:29;96146.50;;;10.39;97.93
34586;BME280;20816;50.950;11.108;2023-03-14T03:17:56;96139.56;;;10.38;98.04
34586;BME280;20816;50.950;11.108;2023-03-14T03:20:23;96144.81;;;10.38;98.23
34586;BME280;20816;50.950;11.108;2023-03-14T03:22:50;96145.66;;;10.39;98.07
34586;BME280;20816;50.950;11.108;2023-03-14T03:25:16;96139.09;;;10.32;98.61
34586;BME280;20816;50.950;11.108;2023-03-14T03:27:43;96135.47;;;10.34;98.08
34586;BME280;20816;50.950;11.108;2023-03-14T03:30:10;96132.28;;;10.44;97.87
34586;BME280;20816;50.950;11.108;2023-03-14T03:32:37;96140.78;;;10.33;98.24
34586;BME280;20816;50.950;11.108;2023-03-14T03:35:05;96141.63;;;10.33;98.71
34586;BME280;20816;50.950;11.108;2023-03-14T03:37:32;96147.06;;;10.30;98.35
34586;BME280;20816;50.950;11.108;2023-03-14T03:40:00;96147.91;;;10.31;98.84
34586;BME280;20816;50.950;11.108;2023-03-14T03:42:27;96140.97;;;10.30;99.09
34586;BME280;20816;50.950;11.108;2023-03-14T03:44:54;96141.44;;;10.36;98.95
34586;BME280;20816;50.950;11.108;2023-03-14T03:47:20;96157.38;;;10.33;99.20
34586;BME280;20816;50.950;11.108;2023-03-14T03:49:47;96143.34;;;10.34;99.01
34586;BME280;20816;50.950;11.108;2023-03-14T03:52:14;96167.47;;;10.25;99.84
34586;BME280;20816;50.950;11.108;2023-03-14T03:54:41;96158.69;;;10.26;99.55
34586;BME280;20816;50.950;11.108;2023-03-14T03:57:07;96146.59;;;10.24;100.00
34586;BME280;20816;50.950;11.108;2023-03-14T03:59:34;96139.00;;;10.33;99.24
34586;BME280;20816;50.950;11.108;2023-03-14T04:02:01;96127.19;;;10.26;99.69
34586;BME280;20816;50.950;11.108;2023-03-14T04:04:28;96140.22;;;10.28;99.54
34586;BME280;20816;50.950;11.108;2023-03-14T04:06:55;96150.72;;;10.28;99.15
34586;BME280;20816;50.950;11.108;2023-03-14T04:09:21;96138.63;;;10.25;99.09
34586;BME280;20816;50.950;11.108;2023-03-14T04:11:48;96141.16;;;10.27;99.37
34586;BME280;20816;50.950;11.108;2023-03-14T04:14:15;96145.75;;;10.23;99.34
34586;BME280;20816;50.950;11.108;2023-03-14T04:16:41;96138.03;;;10.20;99.82
34586;BME280;20816;50.950;11.108;2023-03-14T04:19:08;96147.66;;;10.35;98.74
34586;BME280;20816;50.950;11.108;2023-03-14T04:21:35;96150.63;;;10.29;99.21
34586;BME280;20816;50.950;11.108;2023-03-14T04:24:02;96140.50;;;10.23;99.40
34586;BME280;20816;50.950;11.108;2023-03-14T04:26:28;96147.44;;;10.24;99.47
34586;BME280;20816;50.950;11.108;2023-03-14T04:28:55;96154.19;;;10.28;98.92
34586;BME280;20816;50.950;11.108;2023-03-14T04:31:22;96149.78;;;10.29;99.06
34586;BME280;20816;50.950;11.108;2023-03-14T04:33:49;96166.78;;;10.37;98.21
34586;BME280;20816;50.950;11.108;2023-03-14T04:36:15;96151.50;;;10.44;97.91
34586;BME280;20816;50.950;11.108;2023-03-14T04:38:42;96139.19;;;10.30;98.51
34586;BME280;20816;50.950;11.108;2023-03-14T04:41:09;96137.22;;;10.34;98.66
34586;BME280;20816;50.950;11.108;2023-03-14T04:43:35;96131.13;;;10.33;98.84
34586;BME280;20816;50.950;11.108;2023-03-14T04:46:02;96139.78;;;10.35;98.37
34586;BME280;20816;50.950;11.108;2023-03-14T04:48:29;96143.22;;;10.36;98.67
34586;BME280;20816;50.950;11.108;2023-03-14T04:50:56;96122.69;;;10.28;99.59
34586;BME280;20816;50.950;11.108;2023-03-14T04:53:22;96137.28;;;10.18;100.00
34586;BME280;20816;50.950;11.108;2023-03-14T04:55:51;96141.44;;;10.36;99.84
34586;BME280;20816;50.950;11.108;2023-03-14T04:58:18;96126.06;;;10.30;100.00
34586;BME280;20816;50.950;11.108;2023-03-14T05:00:46;96129.63;;;10.29;99.95
34586;BME280;20816;50.950;11.108;2023-03-14T05:03:15;96121.34;;;10.21;100.00
34586;BME280;20816;50.950;11.108;2023-03-14T05:05:42;96117.63;;;10.25;100.00
34586;BME280;20816;50.950;11.108;2023-03-14T05:08:09;96116.03;;;10.23;100.00
34586;BME280;20816;50.950;11.108;2023-03-14T05:10:36;96113.56;;;10.20;100.00
34586;BME280;20816;50.950;11.108;2023-03-14T05:13:03;96105.84;;;10.17;100.00
34586;BME280;20816;50.950;11.108;2023-03-14T05:15:30;96112.88;;;10.16;100.00
34586;BME280;20816;50.950;11.108;2023-03-14T05:17:56;96098.66;;;10.20;100.00
34586;BME280;20816;50.950;11.108;2023-03-14T05:20:23;96102.81;;;10.24;100.00
34586;BME280;20816;50.950;11.108;2023-03-14T05:22:50;96103.91;;;10.20;100.00
34586;BME280;20816;50.950;11.108;2023-03-14T05:25:16;96104.06;;;10.17;100.00
34586;BME280;20816;50.950;11.108;2023-03-14T05:27:43;96106.44;;;10.22;98.95
34586;BME280;20816;50.950;11.108;2023-03-14T05:30:10;96107.31;;;10.22;98.89
34586;BME280;20816;50.950;11.108;2023-03-14T05:32:37;96114.41;;;10.20;99.25
34586;BME280;20816;50.950;11.108;2023-03-14T05:35:04;96109.25;;;10.19;98.72
34586;BME280;20816;50.950;11.108;2023-03-14T05:37:31;96119.81;;;10.17;99.01
34586;BME280;20816;50.950;11.108;2023-03-14T05:39:57;96119.97;;;10.30;97.12
34586;BME280;20816;50.950;11.108;2023-03-14T05:42:24;96106.16;;;10.12;98.06
34586;BME280;20816;50.950;11.108;2023-03-14T05:44:51;96120.03;;;10.14;97.31
34586;BME280;20816;50.950;11.108;2023-03-14T05:47:17;96112.56;;;10.22;96.43
34586;BME280;20816;50.950;11.108;2023-03-14T05:49:44;96112.16;;;10.14;97.64
34586;BME280;20816;50.950;11.108;2023-03-14T05:52:11;96088.41;;;10.01;97.98
34586;BME280;20816;50.950;11.108;2023-03-14T05:54:38;96107.16;;;10.09;97.21
34586;BME280;20816;50.950;11.108;2023-03-14T05:57:05;96126.09;;;10.15;96.96
34586;BME280;20816;50.950;11.108;2023-03-14T05:59:32;96127.16;;;10.12;97.17
34586;BME280;20816;50.950;11.108;2023-03-14T06:01:58;96116.09;;;10.21;96.88
34586;BME280;20816;50.950;11.108;2023-03-14T06:04:25;96123.22;;;10.19;96.37
34586;BME280;20816;50.950;11.108;2023-03-14T06:06:52;96130.00;;;10.23;96.35
34586;BME280;20816;50.950;11.108;2023-03-14T06:09:19;96124.03;;;10.35;95.42
34586;BME280;20816;50.950;11.108;2023-03-14T06:11:49;96131.50;;;10.27;96.37
34586;BME280;20816;50.950;11.108;2023-03-14T06:14:16;96148.00;;;10.29;96.09
34586;BME280;20816;50.950;11.108;2023-03-14T06:16:43;96146.13;;;10.31;95.92
34586;BME280;20816;50.950;11.108;2023-03-14T06:19:09;96150.63;;;10.29;96.47
34586;BME280;20816;50.950;11.108;2023-03-14T06:21:36;96155.31;;;10.38;94.60
34586;BME280;20816;50.950;11.108;2023-03-14T06:24:03;96141.06;;;10.28;95.43
34586;BME280;20816;50.950;11.108;2023-03-14T06:26:30;96138.72;;;10.38;94.76
34586;BME280;20816;50.950;11.108;2023-03-14T06:28:57;96129.06;;;10.38;94.97
34586;BME280;20816;50.950;11.108;2023-03-14T06:31:25;96136.00;;;10.39;95.01
34586;BME280;20816;50.950;11.108;2023-03-14T06:33:52;96129.81;;;10.41;95.15
34586;BME280;20816;50.950;11.108;2023-03-14T06:36:19;96119.31;;;10.41;95.08
34586;BME280;20816;50.950;11.108;2023-03-14T06:38:46;96123.44;;;10.45;95.01
34586;BME280;20816;50.950;11.108;2023-03-14T06:41:12;96101.88;;;10.39;94.30
34586;BME280;20816;50.950;11.108;2023-03-14T06:43:39;96108.53;;;10.45;94.04
34586;BME280;20816;50.950;11.108;2023-03-14T06:46:06;96103.09;;;10.48;94.06
34586;BME280;20816;50.950;11.108;2023-03-14T06:48:33;96096.44;;;10.43;94.51
34586;BME280;20816;50.950;11.108;2023-03-14T06:51:00;96094.94;;;10.53;93.49
34586;BME280;20816;50.950;11.108;2023-03-14T06:53:27;96081.97;;;10.50;94.13
34586;BME280;20816;50.950;11.108;2023-03-14T06:55:53;96093.72;;;10.44;94.09
34586;BME280;20816;50.950;11.108;2023-03-14T06:58:20;96089.41;;;10.43;94.62
34586;BME280;20816;50.950;11.108;2023-03-14T07:00:47;96102.06;;;10.36;95.13
34586;BME280;20816;50.950;11.108;2023-03-14T07:03:14;96106.19;;;10.41;94.46
34586;BME280;20816;50.950;11.108;2023-03-14T07:05:41;96107.69;;;10.45;94.71
34586;BME280;20816;50.950;11.108;2023-03-14T07:08:08;96110.03;;;10.49;94.58
34586;BME280;20816;50.950;11.108;2023-03-14T07:10:35;96110.41;;;10.57;93.91
34586;BME280;20816;50.950;11.108;2023-03-14T07:13:02;96104.88;;;10.62;93.79
34586;BME280;20816;50.950;11.108;2023-03-14T07:15:29;96110.75;;;10.80;92.89
34586;BME280;20816;50.950;11.108;2023-03-14T07:17:55;96121.75;;;10.72;92.65
34586;BME280;20816;50.950;11.108;2023-03-14T07:20:22;96120.69;;;10.75;93.01
34586;BME280;20816;50.950;11.108;2023-03-14T07:22:50;96128.31;;;10.79;94.07
34586;BME280;20816;50.950;11.108;2023-03-14T07:25:17;96129.63;;;10.72;94.22
34586;BME280;20816;50.950;11.108;2023-03-14T07:27:45;96129.25;;;10.78;93.65
34586;BME280;20816;50.950;11.108;2023-03-14T07:30:12;96132.34;;;10.71;94.44
34586;BME280;20816;50.950;11.108;2023-03-14T07:32:39;96117.25;;;10.60;94.81
34586;BME280;20816;50.950;11.108;2023-03-14T07:35:07;96119.69;;;10.63;94.94
34586;BME280;20816;50.950;11.108;2023-03-14T07:37:34;96118.47;;;10.69;95.43
34586;BME280;20816;50.950;11.108;2023-03-14T07:40:01;96120.31;;;10.81;95.02
34586;BME280;20816;50.950;11.108;2023-03-14T07:42:27;96119.59;;;10.79;94.26
34586;BME280;20816;50.950;11.108;2023-03-14T07:44:54;96117.69;;;10.66;95.25
34586;BME280;20816;50.950;11.108;2023-03-14T07:47:20;96116.69;;;10.69;95.24
34586;BME280;20816;50.950;11.108;2023-03-14T07:49:47;96119.84;;;10.74;94.65
34586;BME280;20816;50.950;11.108;2023-03-14T07:52:14;96117.44;;;10.57;96.38
34586;BME280;20816;50.950;11.108;2023-03-14T07:54:41;96113.88;;;10.58;95.96
34586;BME280;20816;50.950;11.108;2023-03-14T07:57:08;96117.44;;;10.57;97.25
34586;BME280;20816;50.950;11.108;2023-03-14T07:59:34;96117.91;;;10.63;96.51
34586;BME280;20816;50.950;11.108;2023-03-14T08:02:01;96116.13;;;10.64;96.07
34586;BME280;20816;50.950;11.108;2023-03-14T08:04:28;96107.69;;;10.59;97.03
34586;BME280;20816;50.950;11.108;2023-03-14T08:06:55;96113.31;;;10.67;96.36
34586;BME280;20816;50.950;11.108;2023-03-14T08:09:21;96104.50;;;10.68;97.13
34586;BME280;20816;50.950;11.108;2023-03-14T08:11:48;96108.97;;;10.66;97.48
34586;BME280;20816;50.950;11.108;2023-03-14T08:14:14;96107.28;;;10.79;97.06
34586;BME280;20816;50.950;11.108;2023-03-14T08:16:41;96093.06;;;10.69;97.63
34586;BME280;20816;50.950;11.108;2023-03-14T08:19:07;96096.69;;;10.66;97.01
34586;BME280;20816;50.950;11.108;2023-03-14T08:21:35;96091.81;;;10.75;96.22
34586;BME280;20816;50.950;11.108;2023-03-14T08:24:01;96087.59;;;10.72;96.27
34586;BME280;20816;50.950;11.108;2023-03-14T08:26:28;96094.00;;;10.68;96.57
34586;BME280;20816;50.950;11.108;2023-03-14T08:28:55;96081.22;;;10.76;95.61
34586;BME280;20816;50.950;11.108;2023-03-14T08:31:21;96077.28;;;10.83;95.52
34586;BME280;20816;50.950;11.108;2023-03-14T08:33:48;96070.59;;;10.92;94.71
34586;BME280;20816;50.950;11.108;2023-03-14T08:36:15;96079.09;;;10.95;93.96
34586;BME280;20816;50.950;11.108;2023-03-14T08:38:42;96084.72;;;11.04;93.54
34586;BME280;20816;50.950;11.108;2023-03-14T08:41:09;96070.63;;;11.05;94.59
34586;BME280;20816;50.950;11.108;2023-03-14T08:43:35;96076.59;;;11.21;92.65
34586;BME280;20816;50.950;11.108;2023-03-14T08:46:02;96064.94;;;11.25;92.20
34586;BME280;20816;50.950;11.108;2023-03-14T08:48:30;96088.59;;;11.25;93.00
34586;BME280;20816;50.950;11.108;2023-03-14T08:51:04;96079.56;;;11.29;91.52
34586;BME280;20816;50.950;11.108;2023-03-14T08:53:31;96073.91;;;11.35;91.39
34586;BME280;20816;50.950;11.108;2023-03-14T08:55:57;96083.47;;;11.36;91.23
34586;BME280;20816;50.950;11.108;2023-03-14T08:58:24;96084.41;;;11.35;90.88
34586;BME280;20816;50.950;11.108;2023-03-14T09:00:51;96084.75;;;11.43;90.76
34586;BME280;20816;50.950;11.108;2023-03-14T09:03:17;96090.97;;;11.42;91.80
34586;BME280;20816;50.950;11.108;2023-03-14T09:05:44;96087.41;;;11.56;90.25
34586;BME280;20816;50.950;11.108;2023-03-14T09:08:11;96092.09;;;11.78;90.58
34586;BME280;20816;50.950;11.108;2023-03-14T09:10:38;96088.81;;;12.01;89.07
34586;BME280;20816;50.950;11.108;2023-03-14T09:13:05;96084.19;;;12.30;86.59
34586;BME280;20816;50.950;11.108;2023-03-14T09:15:32;96094.28;;;12.49;86.03
34586;BME280;20816;50.950;11.108;2023-03-14T09:17:59;96096.91;;;12.49;85.85
34586;BME280;20816;50.950;11.108;2023-03-14T09:20:26;96091.56;;;12.38;85.67
34586;BME280;20816;50.950;11.108;2023-03-14T09:22:53;96099.03;;;12.19;86.16
34586;BME280;20816;50.950;11.108;2023-03-14T09:25:20;96095.56;;;12.18;87.11
34586;BME280;20816;50.950;11.108;2023-03-14T09:27:47;96097.88;;;12.23;87.01
34586;BME280;20816;50.950;11.108;2023-03-14T09:30:13;96106.63;;;12.23;86.70
34586;BME280;20816;50.950;11.108;2023-03-14T09:32:40;96109.38;;;12.22;87.50
34586;BME280;20816;50.950;11.108;2023-03-14T09:35:07;96099.75;;;12.21;86.98
34586;BME280;20816;50.950;11.108;2023-03-14T09:37:33;96109.22;;;12.11;86.83
34586;BME280;20816;50.950;11.108;2023-03-14T09:40:00;96108.59;;;12.20;87.36
34586;BME280;20816;50.950;11.108;2023-03-14T09:42:27;96108.19;;;12.26;87.20
34586;BME280;20816;50.950;11.108;2023-03-14T09:45:01;96109.03;;;12.14;86.19
34586;BME280;20816;50.950;11.108;2023-03-14T09:47:29;96115.34;;;12.11;86.81
34586;BME280;20816;50.950;11.108;2023-03-14T09:49:55;96109.44;;;12.07;86.94
34586;BME280;20816;50.950;11.108;2023-03-14T09:52:35;96109.03;;;12.01;87.82
34586;BME280;20816;50.950;11.108;2023-03-14T09:55:14;96111.53;;;12.02;87.03
34586;BME280;20816;50.950;11.108;2023-03-14T09:57:42;96115.78;;;12.18;87.61
34586;BME280;20816;50.950;11.108;2023-03-14T10:00:23;96112.41;;;12.16;87.76
34586;BME280;20816;50.950;11.108;2023-03-14T10:02:58;96123.13;;;12.13;86.83
34586;BME280;20816;50.950;11.108;2023-03-14T10:05:28;96122.94;;;12.16;88.35
34586;BME280;20816;50.950;11.108;2023-03-14T10:07:56;96124.06;;;12.12;87.70
34586;BME280;20816;50.950;11.108;2023-03-14T10:10:50;96127.63;;;11.85;89.62
34586;BME280;20816;50.950;11.108;2023-03-14T10:15:55;96139.00;;;11.86;89.49
34586;BME280;20816;50.950;11.108;2023-03-14T10:18:25;96134.16;;;11.92;88.89
34586;BME280;20816;50.950;11.108;2023-03-14T10:23:31;96129.00;;;12.03;87.62
34586;BME280;20816;50.950;11.108;2023-03-14T10:26:15;96132.84;;;12.25;87.32
34586;BME280;20816;50.950;11.108;2023-03-14T10:28:48;96128.84;;;12.32;88.07
34586;BME280;20816;50.950;11.108;2023-03-14T10:31:17;96115.69;;;12.32;87.38
34586;BME280;20816;50.950;11.108;2023-03-14T10:34:04;96125.16;;;12.22;86.32
34586;BME280;20816;50.950;11.108;2023-03-14T10:36:31;96124.19;;;12.35;88.37
34586;BME280;20816;50.950;11.108;2023-03-14T10:42:03;96122.72;;;12.44;88.60
34586;BME280;20816;50.950;11.108;2023-03-14T10:44:30;96130.22;;;12.50;89.30
34586;BME280;20816;50.950;11.108;2023-03-14T10:47:03;96126.09;;;12.59;88.08
34586;BME280;20816;50.950;11.108;2023-03-14T10:49:33;96120.94;;;12.45;89.70
34586;BME280;20816;50.950;11.108;2023-03-14T10:52:23;96133.72;;;12.38;89.05
34586;BME280;20816;50.950;11.108;2023-03-14T10:55:13;96134.53;;;12.26;88.97
34586;BME280;20816;50.950;11.108;2023-03-14T10:57:41;96140.41;;;12.17;90.00
34586;BME280;20816;50.950;11.108;2023-03-14T11:02:46;96144.81;;;12.03;91.10
34586;BME280;20816;50.950;11.108;2023-03-14T11:05:34;96147.13;;;11.95;91.67
34586;BME280;20816;50.950;11.108;2023-03-14T11:08:25;96146.34;;;11.81;91.84
34586;BME280;20816;50.950;11.108;2023-03-14T11:16:45;96152.25;;;11.84;93.00
34586;BME280;20816;50.950;11.108;2023-03-14T11:25:09;96154.50;;;11.90;93.30
34586;BME280;20816;50.950;11.108;2023-03-14T11:27:45;96145.69;;;12.29;92.17
34586;BME280;20816;50.950;11.108;2023-03-14T11:30:25;96137.69;;;12.56;89.79
34586;BME280;20816;50.950;11.108;2023-03-14T11:33:16;96118.50;;;12.80;90.90
34586;BME280;20816;50.950;11.108;2023-03-14T11:38:46;96113.78;;;13.22;88.38
34586;BME280;20816;50.950;11.108;2023-03-14T11:41:52;96128.44;;;13.50;87.16
34586;BME280;20816;50.950;11.108;2023-03-14T11:44:30;96117.59;;;13.65;85.46
34586;BME280;20816;50.950;11.108;2023-03-14T11:47:23;96118.91;;;13.95;83.87
34586;BME280;20816;50.950;11.108;2023-03-14T11:49:58;96119.97;;;14.39;83.30
34586;BME280;20816;50.950;11.108;2023-03-14T11:52:34;96116.84;;;14.34;83.42
34586;BME280;20816;50.950;11.108;2023-03-14T11:55:18;96122.81;;;14.13;83.16
34586;BME280;20816;50.950;11.108;2023-03-14T11:58:00;96123.97;;;14.55;82.20
34586;BME280;20816;50.950;11.108;2023-03-14T12:00:28;96116.53;;;15.17;81.51
34586;BME280;20816;50.950;11.108;2023-03-14T12:06:13;96099.22;;;14.56;80.81
34586;BME280;20816;50.950;11.108;2023-03-14T12:08:52;96111.78;;;14.19;81.02
34586;BME280;20816;50.950;11.108;2023-03-14T12:11:44;96107.72;;;14.26;80.46
34586;BME280;20816;50.950;11.108;2023-03-14T12:14:29;96102.25;;;14.17;81.72
34586;BME280;20816;50.950;11.108;2023-03-14T12:17:17;96097.59;;;14.09;81.91
34586;BME280;20816;50.950;11.108;2023-03-14T12:19:51;96096.75;;;14.20;81.11
34586;BME280;20816;50.950;11.108;2023-03-14T12:22:30;96096.88;;;14.18;80.65
34586;BME280;20816;50.950;11.108;2023-03-14T12:25:06;96087.59;;;14.59;77.26
34586;BME280;20816;50.950;11.108;2023-03-14T12:28:16;96087.44;;;14.49;77.37
34586;BME280;20816;50.950;11.108;2023-03-14T12:30:43;96081.09;;;14.85;77.88
34586;BME280;20816;50.950;11.108;2023-03-14T12:38:13;96084.03;;;14.25;78.64
34586;BME280;20816;50.950;11.108;2023-03-14T12:41:01;96072.81;;;14.45;77.77
34586;BME280;20816;50.950;11.108;2023-03-14T12:43:31;96081.50;;;14.23;78.84
34586;BME280;20816;50.950;11.108;2023-03-14T12:46:20;96071.09;;;14.44;76.89
34586;BME280;20816;50.950;11.108;2023-03-14T12:48:49;96073.53;;;14.58;77.61
34586;BME280;20816;50.950;11.108;2023-03-14T12:51:20;96062.22;;;14.34;77.40
34586;BME280;20816;50.950;11.108;2023-03-14T12:54:15;96068.66;;;14.30;78.64
34586;BME280;20816;50.950;11.108;2023-03-14T12:59:45;96061.06;;;14.03;77.87
34586;BME280;20816;50.950;11.108;2023-03-14T13:02:22;96071.59;;;13.92;78.65
34586;BME280;20816;50.950;11.108;2023-03-14T13:05:13;96050.50;;;14.14;79.46
34586;BME280;20816;50.950;11.108;2023-03-14T13:10:27;96055.47;;;14.30;79.19
34586;BME280;20816;50.950;11.108;2023-03-14T13:12:57;96049.69;;;14.02;78.73
34586;BME280;20816;50.950;11.108;2023-03-14T13:15:53;96046.91;;;13.93;79.01
34586;BME280;20816;50.950;11.108;2023-03-14T13:18:26;96037.56;;;13.65;80.51
34586;BME280;20816;50.950;11.108;2023-03-14T13:20:55;96062.03;;;13.32;82.31
34586;BME280;20816;50.950;11.108;2023-03-14T13:23:31;96052.03;;;13.48;82.23
34586;BME280;20816;50.950;11.108;2023-03-14T13:25:59;96055.91;;;13.31;82.59
34586;BME280;20816;50.950;11.108;2023-03-14T13:28:27;96057.47;;;13.34;82.46
34586;BME280;20816;50.950;11.108;2023-03-14T13:31:01;96061.19;;;13.18;83.29
34586;BME280;20816;50.950;11.108;2023-03-14T13:33:28;96063.34;;;13.13;83.76
34586;BME280;20816;50.950;11.108;2023-03-14T13:35:56;96058.81;;;13.03;84.26
34586;BME280;20816;50.950;11.108;2023-03-14T13:38:26;96060.63;;;13.02;84.65
34586;BME280;20816;50.950;11.108;2023-03-14T13:40:55;96068.22;;;13.07;85.40
34586;BME280;20816;50.950;11.108;2023-03-14T13:43:30;96052.72;;;13.02;83.30